sensor_id;sensor_type;location;lat;lon;timestamp;P1;durP1;ratioP1;P2;durP2;ratioP2
59766;SDS011;46248;58.364;25.582;2022-12-18T00:00:07;6.60;;;2.03;;
59766;SDS011;46248;58.364;25.582;2022-12-18T00:03:29;7.50;;;2.22;;
59766;SDS011;46248;58.364;25.582;2022-12-18T00:06:51;9.88;;;3.85;;
59766;SDS011;46248;58.364;25.582;2022-12-18T00:10:14;7.18;;;2.72;;
59766;SDS011;46248;58.364;25.582;2022-12-18T00:13:35;9.00;;;3.50;;
59766;SDS011;46248;58.364;25.582;2022-12-18T00:16:59;9.15;;;3.03;;
59766;SDS011;46248;58.364;25.582;2022-12-18T00:20:21;6.70;;;3.40;;
59766;SDS011;46248;58.364;25.582;2022-12-18T00:23:46;3.55;;;1.90;;
59766;SDS011;46248;58.364;25.582;2022-12-18T00:27:09;8.45;;;2.92;;
59766;SDS011;46248;58.364;25.582;2022-12-18T00:30:31;3.28;;;2.58;;
59766;SDS011;46248;58.364;25.582;2022-12-18T00:33:54;9.32;;;2.53;;
59766;SDS011;46248;58.364;25.582;2022-12-18T00:37:17;5.93;;;2.85;;
59766;SDS011;46248;58.364;25.582;2022-12-18T00:40:41;6.82;;;2.40;;
59766;SDS011;46248;58.364;25.582;2022-12-18T00:44:03;5.90;;;2.00;;
59766;SDS011;46248;58.364;25.582;2022-12-18T00:47:25;2.53;;;2.03;;
59766;SDS011;46248;58.364;25.582;2022-12-18T00:50:49;4.65;;;1.85;;
59766;SDS011;46248;58.364;25.582;2022-12-18T00:54:11;4.47;;;2.28;;
59766;SDS011;46248;58.364;25.582;2022-12-18T00:57:33;5.85;;;2.53;;
59766;SDS011;46248;58.364;25.582;2022-12-18T01:00:55;6.40;;;2.53;;
59766;SDS011;46248;58.364;25.582;2022-12-18T01:04:17;5.88;;;2.60;;
59766;SDS011;46248;58.364;25.582;2022-12-18T01:07:40;4.35;;;2.60;;
59766;SDS011;46248;58.364;25.582;2022-12-18T01:11:06;3.17;;;1.83;;
59766;SDS011;46248;58.364;25.582;2022-12-18T01:14:29;4.70;;;1.98;;
59766;SDS011;46248;58.364;25.582;2022-12-18T01:17:51;3.58;;;2.30;;
59766;SDS011;46248;58.364;25.582;2022-12-18T01:21:15;5.32;;;2.25;;
59766;SDS011;46248;58.364;25.582;2022-12-18T01:24:38;3.90;;;2.00;;
59766;SDS011;46248;58.364;25.582;2022-12-18T01:28:00;3.50;;;1.75;;
59766;SDS011;46248;58.364;25.582;2022-12-18T01:31:23;3.40;;;1.45;;
59766;SDS011;46248;58.364;25.582;2022-12-18T01:34:47;4.28;;;2.28;;
59766;SDS011;46248;58.364;25.582;2022-12-18T01:38:09;5.45;;;2.10;;
59766;SDS011;46248;58.364;25.582;2022-12-18T01:41:33;2.85;;;1.70;;
59766;SDS011;46248;58.364;25.582;2022-12-18T01:45:21;3.95;;;1.90;;
59766;SDS011;46248;58.364;25.582;2022-12-18T01:48:47;5.88;;;2.58;;
59766;SDS011;46248;58.364;25.582;2022-12-18T01:52:11;2.95;;;2.38;;
59766;SDS011;46248;58.364;25.582;2022-12-18T01:55:35;6.45;;;2.22;;
59766;SDS011;46248;58.364;25.582;2022-12-18T01:59:03;6.53;;;2.17;;
59766;SDS011;46248;58.364;25.582;2022-12-18T02:02:29;3.75;;;2.28;;
59766;SDS011;46248;58.364;25.582;2022-12-18T02:05:53;2.45;;;1.83;;
59766;SDS011;46248;58.364;25.582;2022-12-18T02:09:26;7.22;;;3.10;;
59766;SDS011;46248;58.364;25.582;2022-12-18T02:12:55;4.40;;;1.77;;
59766;SDS011;46248;58.364;25.582;2022-12-18T02:16:23;3.70;;;1.83;;
59766;SDS011;46248;58.364;25.582;2022-12-18T02:19:58;3.33;;;1.27;;
59766;SDS011;46248;58.364;25.582;2022-12-18T02:23:35;5.90;;;2.10;;
59766;SDS011;46248;58.364;25.582;2022-12-18T02:27:09;6.63;;;2.47;;
59766;SDS011;46248;58.364;25.582;2022-12-18T02:30:32;3.17;;;2.13;;
59766;SDS011;46248;58.364;25.582;2022-12-18T02:33:56;2.15;;;1.63;;
59766;SDS011;46248;58.364;25.582;2022-12-18T02:37:21;2.78;;;2.08;;
59766;SDS011;46248;58.364;25.582;2022-12-18T02:40:46;4.93;;;2.03;;
59766;SDS011;46248;58.364;25.582;2022-12-18T02:44:12;4.45;;;1.80;;
59766;SDS011;46248;58.364;25.582;2022-12-18T02:47:36;4.53;;;2.03;;
59766;SDS011;46248;58.364;25.582;2022-12-18T02:51:02;5.63;;;2.08;;
59766;SDS011;46248;58.364;25.582;2022-12-18T02:54:34;4.80;;;1.88;;
59766;SDS011;46248;58.364;25.582;2022-12-18T02:58:09;2.78;;;1.73;;
59766;SDS011;46248;58.364;25.582;2022-12-18T03:01:38;5.05;;;2.15;;
59766;SDS011;46248;58.364;25.582;2022-12-18T03:05:08;3.17;;;1.88;;
59766;SDS011;46248;58.364;25.582;2022-12-18T03:08:36;5.13;;;1.75;;
59766;SDS011;46248;58.364;25.582;2022-12-18T03:12:02;5.32;;;2.22;;
59766;SDS011;46248;58.364;25.582;2022-12-18T03:15:46;8.15;;;2.38;;
59766;SDS011;46248;58.364;25.582;2022-12-18T03:19:13;5.30;;;1.45;;
59766;SDS011;46248;58.364;25.582;2022-12-18T03:22:37;9.05;;;3.33;;
59766;SDS011;46248;58.364;25.582;2022-12-18T03:26:01;5.30;;;2.45;;
59766;SDS011;46248;58.364;25.582;2022-12-18T03:29:27;5.43;;;2.63;;
59766;SDS011;46248;58.364;25.582;2022-12-18T03:32:56;5.75;;;2.58;;
59766;SDS011;46248;58.364;25.582;2022-12-18T03:36:25;3.28;;;2.20;;
59766;SDS011;46248;58.364;25.582;2022-12-18T03:39:47;8.10;;;2.67;;
59766;SDS011;46248;58.364;25.582;2022-12-18T03:43:10;5.07;;;2.50;;
59766;SDS011;46248;58.364;25.582;2022-12-18T03:46:41;4.65;;;3.03;;
59766;SDS011;46248;58.364;25.582;2022-12-18T03:50:10;6.00;;;2.28;;
59766;SDS011;46248;58.364;25.582;2022-12-18T03:53:36;4.45;;;2.22;;
59766;SDS011;46248;58.364;25.582;2022-12-18T03:57:07;3.75;;;1.88;;
59766;SDS011;46248;58.364;25.582;2022-12-18T04:00:33;6.15;;;2.97;;
59766;SDS011;46248;58.364;25.582;2022-12-18T04:03:56;5.18;;;2.60;;
59766;SDS011;46248;58.364;25.582;2022-12-18T04:07:19;4.40;;;1.90;;
59766;SDS011;46248;58.364;25.582;2022-12-18T04:10:44;2.67;;;2.25;;
59766;SDS011;46248;58.364;25.582;2022-12-18T04:14:05;6.28;;;2.55;;
59766;SDS011;46248;58.364;25.582;2022-12-18T04:17:33;3.05;;;2.50;;
59766;SDS011;46248;58.364;25.582;2022-12-18T04:20:55;6.05;;;2.72;;
59766;SDS011;46248;58.364;25.582;2022-12-18T04:24:17;9.00;;;2.13;;
59766;SDS011;46248;58.364;25.582;2022-12-18T04:27:40;3.95;;;2.85;;
59766;SDS011;46248;58.364;25.582;2022-12-18T04:31:02;6.22;;;3.33;;
59766;SDS011;46248;58.364;25.582;2022-12-18T04:34:25;3.90;;;2.47;;
59766;SDS011;46248;58.364;25.582;2022-12-18T04:37:47;6.20;;;3.15;;
59766;SDS011;46248;58.364;25.582;2022-12-18T04:41:09;8.73;;;3.70;;
59766;SDS011;46248;58.364;25.582;2022-12-18T04:44:32;5.95;;;3.30;;
59766;SDS011;46248;58.364;25.582;2022-12-18T04:47:54;3.90;;;2.75;;
59766;SDS011;46248;58.364;25.582;2022-12-18T04:51:18;12.15;;;4.78;;
59766;SDS011;46248;58.364;25.582;2022-12-18T04:54:46;12.20;;;3.83;;
59766;SDS011;46248;58.364;25.582;2022-12-18T04:58:08;21.38;;;4.03;;
59766;SDS011;46248;58.364;25.582;2022-12-18T05:01:31;11.32;;;4.70;;
59766;SDS011;46248;58.364;25.582;2022-12-18T05:04:54;7.03;;;2.95;;
59766;SDS011;46248;58.364;25.582;2022-12-18T05:08:16;6.15;;;3.13;;
59766;SDS011;46248;58.364;25.582;2022-12-18T05:11:39;5.97;;;2.95;;
59766;SDS011;46248;58.364;25.582;2022-12-18T05:15:01;5.47;;;2.72;;
59766;SDS011;46248;58.364;25.582;2022-12-18T05:18:26;7.47;;;3.13;;
59766;SDS011;46248;58.364;25.582;2022-12-18T05:21:48;8.20;;;3.05;;
59766;SDS011;46248;58.364;25.582;2022-12-18T05:25:09;9.55;;;3.45;;
59766;SDS011;46248;58.364;25.582;2022-12-18T05:28:32;5.40;;;3.08;;
59766;SDS011;46248;58.364;25.582;2022-12-18T05:31:55;9.15;;;4.45;;
59766;SDS011;46248;58.364;25.582;2022-12-18T05:35:18;6.25;;;4.10;;
59766;SDS011;46248;58.364;25.582;2022-12-18T05:38:40;7.28;;;4.30;;
59766;SDS011;46248;58.364;25.582;2022-12-18T05:42:02;8.40;;;4.97;;
59766;SDS011;46248;58.364;25.582;2022-12-18T05:45:24;8.70;;;3.92;;
59766;SDS011;46248;58.364;25.582;2022-12-18T05:48:47;20.27;;;5.20;;
59766;SDS011;46248;58.364;25.582;2022-12-18T05:52:14;10.65;;;4.82;;
59766;SDS011;46248;58.364;25.582;2022-12-18T05:55:37;5.85;;;2.92;;
59766;SDS011;46248;58.364;25.582;2022-12-18T05:59:01;15.18;;;5.90;;
59766;SDS011;46248;58.364;25.582;2022-12-18T06:02:23;9.77;;;5.15;;
59766;SDS011;46248;58.364;25.582;2022-12-18T06:05:45;13.18;;;6.97;;
59766;SDS011;46248;58.364;25.582;2022-12-18T06:09:08;11.45;;;4.90;;
59766;SDS011;46248;58.364;25.582;2022-12-18T06:12:29;20.58;;;7.47;;
59766;SDS011;46248;58.364;25.582;2022-12-18T06:15:53;11.57;;;4.15;;
59766;SDS011;46248;58.364;25.582;2022-12-18T06:19:15;11.50;;;5.65;;
59766;SDS011;46248;58.364;25.582;2022-12-18T06:22:37;18.50;;;6.65;;
59766;SDS011;46248;58.364;25.582;2022-12-18T06:26:04;14.20;;;5.78;;
59766;SDS011;46248;58.364;25.582;2022-12-18T06:29:28;23.55;;;6.82;;
59766;SDS011;46248;58.364;25.582;2022-12-18T06:32:50;19.77;;;7.28;;
59766;SDS011;46248;58.364;25.582;2022-12-18T06:36:16;13.38;;;6.28;;
59766;SDS011;46248;58.364;25.582;2022-12-18T06:39:37;15.98;;;7.28;;
59766;SDS011;46248;58.364;25.582;2022-12-18T06:43:01;18.30;;;7.00;;
59766;SDS011;46248;58.364;25.582;2022-12-18T06:46:23;47.78;;;22.58;;
59766;SDS011;46248;58.364;25.582;2022-12-18T06:49:45;46.33;;;18.77;;
59766;SDS011;46248;58.364;25.582;2022-12-18T06:53:09;41.17;;;25.30;;
59766;SDS011;46248;58.364;25.582;2022-12-18T06:56:31;32.65;;;20.25;;
59766;SDS011;46248;58.364;25.582;2022-12-18T06:59:54;26.77;;;10.95;;
59766;SDS011;46248;58.364;25.582;2022-12-18T07:03:16;30.45;;;16.92;;
59766;SDS011;46248;58.364;25.582;2022-12-18T07:06:38;28.63;;;14.75;;
59766;SDS011;46248;58.364;25.582;2022-12-18T07:10:00;28.02;;;11.13;;
59766;SDS011;46248;58.364;25.582;2022-12-18T07:13:21;31.27;;;15.27;;
59766;SDS011;46248;58.364;25.582;2022-12-18T07:16:45;29.73;;;15.30;;
59766;SDS011;46248;58.364;25.582;2022-12-18T07:20:08;51.83;;;26.45;;
59766;SDS011;46248;58.364;25.582;2022-12-18T07:23:31;39.22;;;19.55;;
59766;SDS011;46248;58.364;25.582;2022-12-18T07:26:53;26.80;;;15.40;;
59766;SDS011;46248;58.364;25.582;2022-12-18T07:30:15;32.83;;;16.73;;
59766;SDS011;46248;58.364;25.582;2022-12-18T07:33:38;36.33;;;19.58;;
59766;SDS011;46248;58.364;25.582;2022-12-18T07:37:01;34.80;;;18.60;;
59766;SDS011;46248;58.364;25.582;2022-12-18T07:40:23;38.13;;;18.98;;
59766;SDS011;46248;58.364;25.582;2022-12-18T07:43:45;36.03;;;17.60;;
59766;SDS011;46248;58.364;25.582;2022-12-18T07:47:07;44.13;;;16.90;;
59766;SDS011;46248;58.364;25.582;2022-12-18T07:50:32;33.85;;;14.23;;
59766;SDS011;46248;58.364;25.582;2022-12-18T07:53:54;17.55;;;10.75;;
59766;SDS011;46248;58.364;25.582;2022-12-18T07:57:17;26.63;;;13.32;;
59766;SDS011;46248;58.364;25.582;2022-12-18T08:01:03;52.75;;;18.90;;
59766;SDS011;46248;58.364;25.582;2022-12-18T08:04:25;45.25;;;16.98;;
59766;SDS011;46248;58.364;25.582;2022-12-18T08:07:48;31.23;;;13.55;;
59766;SDS011;46248;58.364;25.582;2022-12-18T08:11:11;31.52;;;16.63;;
59766;SDS011;46248;58.364;25.582;2022-12-18T08:14:32;32.83;;;14.90;;
59766;SDS011;46248;58.364;25.582;2022-12-18T08:17:55;23.45;;;11.02;;
59766;SDS011;46248;58.364;25.582;2022-12-18T08:21:18;28.13;;;10.75;;
59766;SDS011;46248;58.364;25.582;2022-12-18T08:24:44;24.17;;;11.40;;
59766;SDS011;46248;58.364;25.582;2022-12-18T08:28:06;41.90;;;17.65;;
59766;SDS011;46248;58.364;25.582;2022-12-18T08:31:27;32.03;;;14.45;;
59766;SDS011;46248;58.364;25.582;2022-12-18T08:34:50;38.25;;;17.75;;
59766;SDS011;46248;58.364;25.582;2022-12-18T08:38:15;35.80;;;15.18;;
59766;SDS011;46248;58.364;25.582;2022-12-18T08:41:38;38.10;;;15.55;;
59766;SDS011;46248;58.364;25.582;2022-12-18T08:45:00;25.38;;;12.55;;
59766;SDS011;46248;58.364;25.582;2022-12-18T08:48:21;32.60;;;15.60;;
59766;SDS011;46248;58.364;25.582;2022-12-18T08:51:43;24.42;;;9.82;;
59766;SDS011;46248;58.364;25.582;2022-12-18T08:55:05;34.70;;;17.33;;
59766;SDS011;46248;58.364;25.582;2022-12-18T08:58:30;30.45;;;15.07;;
59766;SDS011;46248;58.364;25.582;2022-12-18T09:01:53;21.20;;;9.15;;
59766;SDS011;46248;58.364;25.582;2022-12-18T09:05:15;29.58;;;14.82;;
59766;SDS011;46248;58.364;25.582;2022-12-18T09:08:37;31.70;;;15.48;;
59766;SDS011;46248;58.364;25.582;2022-12-18T09:11:59;26.75;;;12.45;;
59766;SDS011;46248;58.364;25.582;2022-12-18T09:15:22;16.80;;;7.93;;
59766;SDS011;46248;58.364;25.582;2022-12-18T09:18:44;17.65;;;8.32;;
59766;SDS011;46248;58.364;25.582;2022-12-18T09:22:05;16.98;;;7.90;;
59766;SDS011;46248;58.364;25.582;2022-12-18T09:25:28;15.68;;;6.47;;
59766;SDS011;46248;58.364;25.582;2022-12-18T09:28:53;16.38;;;6.25;;
59766;SDS011;46248;58.364;25.582;2022-12-18T09:32:16;23.17;;;9.60;;
59766;SDS011;46248;58.364;25.582;2022-12-18T09:35:42;22.88;;;10.90;;
59766;SDS011;46248;58.364;25.582;2022-12-18T09:39:05;27.80;;;11.35;;
59766;SDS011;46248;58.364;25.582;2022-12-18T09:42:28;18.08;;;6.68;;
59766;SDS011;46248;58.364;25.582;2022-12-18T09:45:51;17.63;;;8.68;;
59766;SDS011;46248;58.364;25.582;2022-12-18T09:49:18;19.63;;;8.55;;
59766;SDS011;46248;58.364;25.582;2022-12-18T09:52:45;21.45;;;9.73;;
59766;SDS011;46248;58.364;25.582;2022-12-18T09:56:11;22.45;;;9.00;;
59766;SDS011;46248;58.364;25.582;2022-12-18T09:59:37;15.90;;;6.53;;
59766;SDS011;46248;58.364;25.582;2022-12-18T10:03:01;17.13;;;7.72;;
59766;SDS011;46248;58.364;25.582;2022-12-18T10:06:32;17.05;;;8.20;;
59766;SDS011;46248;58.364;25.582;2022-12-18T10:10:01;15.38;;;6.95;;
59766;SDS011;46248;58.364;25.582;2022-12-18T10:13:31;14.18;;;7.32;;
59766;SDS011;46248;58.364;25.582;2022-12-18T10:17:00;21.60;;;9.05;;
59766;SDS011;46248;58.364;25.582;2022-12-18T10:20:30;17.35;;;8.82;;
59766;SDS011;46248;58.364;25.582;2022-12-18T10:23:58;17.48;;;8.43;;
59766;SDS011;46248;58.364;25.582;2022-12-18T10:27:36;32.33;;;14.45;;
59766;SDS011;46248;58.364;25.582;2022-12-18T10:30:58;32.35;;;16.58;;
59766;SDS011;46248;58.364;25.582;2022-12-18T10:34:20;31.50;;;14.25;;
59766;SDS011;46248;58.364;25.582;2022-12-18T10:37:58;26.92;;;12.38;;
59766;SDS011;46248;58.364;25.582;2022-12-18T10:41:25;22.08;;;10.77;;
59766;SDS011;46248;58.364;25.582;2022-12-18T10:44:48;35.10;;;16.58;;
59766;SDS011;46248;58.364;25.582;2022-12-18T10:48:23;29.60;;;14.00;;
59766;SDS011;46248;58.364;25.582;2022-12-18T10:51:45;24.08;;;11.13;;
59766;SDS011;46248;58.364;25.582;2022-12-18T10:55:13;20.88;;;9.40;;
59766;SDS011;46248;58.364;25.582;2022-12-18T10:58:43;16.10;;;9.32;;
59766;SDS011;46248;58.364;25.582;2022-12-18T11:02:24;46.22;;;20.77;;
59766;SDS011;46248;58.364;25.582;2022-12-18T11:05:48;41.30;;;17.80;;
59766;SDS011;46248;58.364;25.582;2022-12-18T11:09:26;37.83;;;17.08;;
59766;SDS011;46248;58.364;25.582;2022-12-18T11:12:49;28.60;;;14.05;;
59766;SDS011;46248;58.364;25.582;2022-12-18T11:16:18;31.55;;;14.90;;
59766;SDS011;46248;58.364;25.582;2022-12-18T11:19:40;28.45;;;11.20;;
59766;SDS011;46248;58.364;25.582;2022-12-18T11:23:03;34.70;;;14.60;;
59766;SDS011;46248;58.364;25.582;2022-12-18T11:26:33;29.35;;;13.60;;
59766;SDS011;46248;58.364;25.582;2022-12-18T11:30:07;27.30;;;13.48;;
59766;SDS011;46248;58.364;25.582;2022-12-18T11:33:31;24.50;;;11.65;;
59766;SDS011;46248;58.364;25.582;2022-12-18T11:36:54;20.58;;;9.85;;
59766;SDS011;46248;58.364;25.582;2022-12-18T11:40:17;27.40;;;10.52;;
59766;SDS011;46248;58.364;25.582;2022-12-18T11:43:42;22.00;;;9.40;;
59766;SDS011;46248;58.364;25.582;2022-12-18T11:47:13;21.38;;;11.50;;
59766;SDS011;46248;58.364;25.582;2022-12-18T11:50:46;20.65;;;10.82;;
59766;SDS011;46248;58.364;25.582;2022-12-18T11:54:11;23.35;;;10.85;;
59766;SDS011;46248;58.364;25.582;2022-12-18T11:57:35;31.08;;;15.55;;
59766;SDS011;46248;58.364;25.582;2022-12-18T12:01:07;39.00;;;14.80;;
59766;SDS011;46248;58.364;25.582;2022-12-18T12:04:46;34.03;;;15.48;;
59766;SDS011;46248;58.364;25.582;2022-12-18T12:08:18;36.65;;;17.27;;
59766;SDS011;46248;58.364;25.582;2022-12-18T12:11:50;28.60;;;12.75;;
59766;SDS011;46248;58.364;25.582;2022-12-18T12:15:24;23.50;;;10.70;;
59766;SDS011;46248;58.364;25.582;2022-12-18T12:18:59;17.33;;;9.25;;
59766;SDS011;46248;58.364;25.582;2022-12-18T12:22:30;32.17;;;12.60;;
59766;SDS011;46248;58.364;25.582;2022-12-18T12:26:01;28.13;;;10.68;;
59766;SDS011;46248;58.364;25.582;2022-12-18T12:29:32;20.98;;;11.25;;
59766;SDS011;46248;58.364;25.582;2022-12-18T12:33:05;23.85;;;11.50;;
59766;SDS011;46248;58.364;25.582;2022-12-18T12:36:41;17.48;;;8.25;;
59766;SDS011;46248;58.364;25.582;2022-12-18T12:40:11;17.80;;;7.80;;
59766;SDS011;46248;58.364;25.582;2022-12-18T12:44:01;18.13;;;9.18;;
59766;SDS011;46248;58.364;25.582;2022-12-18T12:47:26;17.90;;;8.05;;
59766;SDS011;46248;58.364;25.582;2022-12-18T12:50:53;13.80;;;7.78;;
59766;SDS011;46248;58.364;25.582;2022-12-18T12:54:18;19.25;;;7.10;;
59766;SDS011;46248;58.364;25.582;2022-12-18T12:57:45;22.63;;;9.55;;
59766;SDS011;46248;58.364;25.582;2022-12-18T13:01:16;19.13;;;9.43;;
59766;SDS011;46248;58.364;25.582;2022-12-18T13:04:47;19.05;;;9.82;;
59766;SDS011;46248;58.364;25.582;2022-12-18T13:08:24;12.30;;;7.00;;
59766;SDS011;46248;58.364;25.582;2022-12-18T13:11:52;61.65;;;23.98;;
59766;SDS011;46248;58.364;25.582;2022-12-18T13:15:33;18.48;;;7.45;;
59766;SDS011;46248;58.364;25.582;2022-12-18T13:19:01;14.15;;;7.65;;
59766;SDS011;46248;58.364;25.582;2022-12-18T13:22:23;17.10;;;8.52;;
59766;SDS011;46248;58.364;25.582;2022-12-18T13:25:56;14.70;;;7.00;;
59766;SDS011;46248;58.364;25.582;2022-12-18T13:37:43;19.67;;;11.35;;
59766;SDS011;46248;58.364;25.582;2022-12-18T13:41:20;16.98;;;7.63;;
59766;SDS011;46248;58.364;25.582;2022-12-18T13:44:45;16.83;;;8.25;;
59766;SDS011;46248;58.364;25.582;2022-12-18T13:48:18;14.30;;;7.72;;
59766;SDS011;46248;58.364;25.582;2022-12-18T13:51:46;14.00;;;6.50;;
59766;SDS011;46248;58.364;25.582;2022-12-18T13:55:16;18.48;;;7.82;;
59766;SDS011;46248;58.364;25.582;2022-12-18T13:58:40;12.82;;;6.28;;
59766;SDS011;46248;58.364;25.582;2022-12-18T14:02:07;16.23;;;7.53;;
59766;SDS011;46248;58.364;25.582;2022-12-18T14:05:36;21.60;;;12.30;;
59766;SDS011;46248;58.364;25.582;2022-12-18T14:09:03;19.58;;;10.13;;
59766;SDS011;46248;58.364;25.582;2022-12-18T14:12:30;24.08;;;12.30;;
59766;SDS011;46248;58.364;25.582;2022-12-18T14:16:11;16.50;;;8.82;;
59766;SDS011;46248;58.364;25.582;2022-12-18T14:19:36;15.25;;;8.25;;
59766;SDS011;46248;58.364;25.582;2022-12-18T14:22:58;19.35;;;10.20;;
59766;SDS011;46248;58.364;25.582;2022-12-18T14:26:22;19.50;;;9.55;;
59766;SDS011;46248;58.364;25.582;2022-12-18T14:29:50;17.02;;;7.55;;
59766;SDS011;46248;58.364;25.582;2022-12-18T14:33:13;23.85;;;11.07;;
59766;SDS011;46248;58.364;25.582;2022-12-18T14:36:35;73.43;;;26.30;;
59766;SDS011;46248;58.364;25.582;2022-12-18T14:40:02;60.40;;;26.30;;
59766;SDS011;46248;58.364;25.582;2022-12-18T14:43:31;38.92;;;18.85;;
59766;SDS011;46248;58.364;25.582;2022-12-18T14:46:57;43.33;;;19.02;;
59766;SDS011;46248;58.364;25.582;2022-12-18T14:50:21;42.47;;;22.60;;
59766;SDS011;46248;58.364;25.582;2022-12-18T14:53:46;49.75;;;25.38;;
59766;SDS011;46248;58.364;25.582;2022-12-18T14:57:16;31.27;;;20.13;;
59766;SDS011;46248;58.364;25.582;2022-12-18T15:00:42;38.90;;;24.50;;
59766;SDS011;46248;58.364;25.582;2022-12-18T15:04:19;31.77;;;18.75;;
59766;SDS011;46248;58.364;25.582;2022-12-18T15:07:49;30.55;;;19.42;;
59766;SDS011;46248;58.364;25.582;2022-12-18T15:19:02;32.78;;;22.35;;
59766;SDS011;46248;58.364;25.582;2022-12-18T15:22:26;25.08;;;15.40;;
59766;SDS011;46248;58.364;25.582;2022-12-18T15:25:54;35.83;;;25.85;;
59766;SDS011;46248;58.364;25.582;2022-12-18T15:29:19;18.92;;;15.45;;
59766;SDS011;46248;58.364;25.582;2022-12-18T15:32:42;15.27;;;10.10;;
59766;SDS011;46248;58.364;25.582;2022-12-18T15:36:07;17.45;;;10.95;;
59766;SDS011;46248;58.364;25.582;2022-12-18T15:39:32;14.60;;;9.95;;
59766;SDS011;46248;58.364;25.582;2022-12-18T15:42:55;21.60;;;14.07;;
59766;SDS011;46248;58.364;25.582;2022-12-18T15:46:35;24.73;;;16.75;;
59766;SDS011;46248;58.364;25.582;2022-12-18T15:49:58;23.23;;;17.45;;
59766;SDS011;46248;58.364;25.582;2022-12-18T15:53:19;19.13;;;9.30;;
59766;SDS011;46248;58.364;25.582;2022-12-18T15:56:43;23.77;;;13.48;;
59766;SDS011;46248;58.364;25.582;2022-12-18T16:00:22;15.50;;;9.38;;
59766;SDS011;46248;58.364;25.582;2022-12-18T16:03:44;23.63;;;14.50;;
59766;SDS011;46248;58.364;25.582;2022-12-18T16:07:07;30.35;;;15.77;;
59766;SDS011;46248;58.364;25.582;2022-12-18T16:10:40;40.67;;;21.98;;
59766;SDS011;46248;58.364;25.582;2022-12-18T16:14:04;37.75;;;19.85;;
59766;SDS011;46248;58.364;25.582;2022-12-18T16:17:27;36.30;;;17.30;;
59766;SDS011;46248;58.364;25.582;2022-12-18T16:20:49;20.85;;;11.45;;
59766;SDS011;46248;58.364;25.582;2022-12-18T16:24:13;27.55;;;14.38;;
59766;SDS011;46248;58.364;25.582;2022-12-18T16:27:37;26.05;;;14.40;;
59766;SDS011;46248;58.364;25.582;2022-12-18T16:31:04;32.42;;;15.80;;
59766;SDS011;46248;58.364;25.582;2022-12-18T16:34:27;38.72;;;19.13;;
59766;SDS011;46248;58.364;25.582;2022-12-18T16:37:54;34.00;;;15.93;;
59766;SDS011;46248;58.364;25.582;2022-12-18T16:41:17;22.00;;;13.32;;
59766;SDS011;46248;58.364;25.582;2022-12-18T16:44:52;20.80;;;11.85;;
59766;SDS011;46248;58.364;25.582;2022-12-18T16:48:15;23.60;;;13.48;;
59766;SDS011;46248;58.364;25.582;2022-12-18T16:51:37;16.33;;;9.88;;
59766;SDS011;46248;58.364;25.582;2022-12-18T16:54:59;11.30;;;7.05;;
59766;SDS011;46248;58.364;25.582;2022-12-18T16:58:21;29.90;;;14.13;;
59766;SDS011;46248;58.364;25.582;2022-12-18T17:01:46;16.30;;;8.90;;
59766;SDS011;46248;58.364;25.582;2022-12-18T17:05:09;30.60;;;17.45;;
59766;SDS011;46248;58.364;25.582;2022-12-18T17:08:31;26.15;;;14.68;;
59766;SDS011;46248;58.364;25.582;2022-12-18T17:11:53;15.15;;;7.57;;
59766;SDS011;46248;58.364;25.582;2022-12-18T17:15:16;23.13;;;11.48;;
59766;SDS011;46248;58.364;25.582;2022-12-18T17:18:39;11.57;;;6.57;;
59766;SDS011;46248;58.364;25.582;2022-12-18T17:22:02;11.20;;;5.68;;
59766;SDS011;46248;58.364;25.582;2022-12-18T17:25:24;13.90;;;6.88;;
59766;SDS011;46248;58.364;25.582;2022-12-18T17:28:46;11.02;;;7.03;;
59766;SDS011;46248;58.364;25.582;2022-12-18T17:32:08;17.20;;;8.70;;
59766;SDS011;46248;58.364;25.582;2022-12-18T17:35:30;11.38;;;5.53;;
59766;SDS011;46248;58.364;25.582;2022-12-18T17:38:54;14.10;;;7.60;;
59766;SDS011;46248;58.364;25.582;2022-12-18T17:42:17;24.75;;;12.68;;
59766;SDS011;46248;58.364;25.582;2022-12-18T17:45:39;14.40;;;9.15;;
59766;SDS011;46248;58.364;25.582;2022-12-18T17:49:01;11.45;;;7.20;;
59766;SDS011;46248;58.364;25.582;2022-12-18T17:52:23;16.08;;;9.43;;
59766;SDS011;46248;58.364;25.582;2022-12-18T17:55:53;10.68;;;6.75;;
59766;SDS011;46248;58.364;25.582;2022-12-18T17:59:15;5.72;;;4.38;;
59766;SDS011;46248;58.364;25.582;2022-12-18T18:02:37;9.20;;;6.32;;
59766;SDS011;46248;58.364;25.582;2022-12-18T18:06:00;8.10;;;5.32;;
59766;SDS011;46248;58.364;25.582;2022-12-18T18:09:23;7.07;;;4.90;;
59766;SDS011;46248;58.364;25.582;2022-12-18T18:12:46;7.88;;;5.13;;
59766;SDS011;46248;58.364;25.582;2022-12-18T18:16:26;16.23;;;10.05;;
59766;SDS011;46248;58.364;25.582;2022-12-18T18:19:48;9.65;;;6.63;;
59766;SDS011;46248;58.364;25.582;2022-12-18T18:23:13;11.90;;;8.25;;
59766;SDS011;46248;58.364;25.582;2022-12-18T18:26:35;9.60;;;5.65;;
59766;SDS011;46248;58.364;25.582;2022-12-18T18:29:58;11.93;;;5.95;;
59766;SDS011;46248;58.364;25.582;2022-12-18T18:33:20;11.73;;;5.95;;
59766;SDS011;46248;58.364;25.582;2022-12-18T18:36:43;8.23;;;4.68;;
59766;SDS011;46248;58.364;25.582;2022-12-18T18:40:06;10.45;;;6.90;;
59766;SDS011;46248;58.364;25.582;2022-12-18T18:43:31;9.65;;;5.38;;
59766;SDS011;46248;58.364;25.582;2022-12-18T18:46:57;10.10;;;6.07;;
59766;SDS011;46248;58.364;25.582;2022-12-18T18:50:21;12.02;;;6.22;;
59766;SDS011;46248;58.364;25.582;2022-12-18T18:53:43;21.75;;;7.43;;
59766;SDS011;46248;58.364;25.582;2022-12-18T18:57:06;12.40;;;5.75;;
59766;SDS011;46248;58.364;25.582;2022-12-18T19:00:39;12.90;;;7.07;;
59766;SDS011;46248;58.364;25.582;2022-12-18T19:04:03;13.32;;;9.25;;
59766;SDS011;46248;58.364;25.582;2022-12-18T19:07:25;12.38;;;5.93;;
59766;SDS011;46248;58.364;25.582;2022-12-18T19:10:50;12.82;;;6.43;;
59766;SDS011;46248;58.364;25.582;2022-12-18T19:14:17;14.35;;;6.28;;
59766;SDS011;46248;58.364;25.582;2022-12-18T19:17:39;5.55;;;3.60;;
59766;SDS011;46248;58.364;25.582;2022-12-18T19:21:07;10.93;;;5.45;;
59766;SDS011;46248;58.364;25.582;2022-12-18T19:24:31;14.57;;;7.78;;
59766;SDS011;46248;58.364;25.582;2022-12-18T19:27:53;24.98;;;13.30;;
59766;SDS011;46248;58.364;25.582;2022-12-18T19:31:15;14.32;;;7.30;;
59766;SDS011;46248;58.364;25.582;2022-12-18T19:34:44;18.42;;;7.05;;
59766;SDS011;46248;58.364;25.582;2022-12-18T19:38:09;16.88;;;7.65;;
59766;SDS011;46248;58.364;25.582;2022-12-18T19:41:31;17.10;;;9.15;;
59766;SDS011;46248;58.364;25.582;2022-12-18T19:44:53;22.20;;;9.10;;
59766;SDS011;46248;58.364;25.582;2022-12-18T19:48:15;11.60;;;5.07;;
59766;SDS011;46248;58.364;25.582;2022-12-18T19:51:37;7.60;;;5.78;;
59766;SDS011;46248;58.364;25.582;2022-12-18T19:55:00;10.80;;;5.40;;
59766;SDS011;46248;58.364;25.582;2022-12-18T19:58:22;8.48;;;3.70;;
59766;SDS011;46248;58.364;25.582;2022-12-18T20:01:45;5.90;;;3.25;;
59766;SDS011;46248;58.364;25.582;2022-12-18T20:05:08;7.13;;;3.17;;
59766;SDS011;46248;58.364;25.582;2022-12-18T20:08:32;5.70;;;3.55;;
59766;SDS011;46248;58.364;25.582;2022-12-18T20:11:55;8.82;;;2.80;;
59766;SDS011;46248;58.364;25.582;2022-12-18T20:15:17;7.65;;;3.47;;